CheckWX is a tool to help pilots better visualize weather data.  It is not intended as a substitute for an official pre-flight weather briefing.

21:08:08 UTC

AGGM TAF
Munda Airport
Solomon Islands
TAF AGGM 231641Z 2318/2418 18007KT 9999 FEW018 BKN100 Q 1009 1011 1011 1009

Feb-23@
18:00 UTC

Feb-23 @ 18:00 UTC

Feb-24@
18:00 UTC

Feb-24 @ 18:00 UTC

TAF AGGM 231641Z 2318/2418 18007KT 9999 FEW018 BKN100 Q 1009 1011 1011 1009
Wind
  • 180° at 7 KTS
Cloud Levels
  • Few at 1,800' AGL
  • Broken at 10,000' AGL